Thursday, May 24, 2018, 7:23 PM GMT
Back to Local

CWVQ, Ste Anne De Bell 1

Location: , , Canada Lat: 45.433
Local Time: 7:23 PM GMT (19:23 GMT) Lon: -73.933
Time Zone: GMT Elev: 127 ft

Show me the last for .
Show Coded

Time T Td Feel RH Dir Speed Gust Alt SLP Vis Weather Sky Remarks
2018-05-24 19:00 71 30 - 21 270° 9 - - 30.05 0 None
2018-05-24 18:00 69 31 - 24 280° 7 - - 30.08 0 None
2018-05-24 17:00 64 32 - 30 280° 6 - - 30.11 0 None
2018-05-24 16:00 63 29 - 27 290° 7 - - 30.14 0 None
2018-05-24 15:00 60 29 - 30 260° 5 - - 30.16 0 None
2018-05-24 14:00 58 30 - 34 230° 5 - - 30.17 0 None
2018-05-24 13:00 55 33 - 42 270° 2 - - 30.18 0 None
2018-05-24 12:00 53 34 - 46 - Calm - - 30.17 0 None
2018-05-24 11:00 53 35 - 50 360° 2 - - 30.16 0 None
2018-05-24 10:00 52 38 - 59 350° 3 - - 30.12 0 None
2018-05-24 09:00 53 36 - 52 310° 3 - - 30.10 0 None
2018-05-24 08:00 54 33 - 45 290° 3 - - 30.09 0 None
2018-05-24 07:00 54 30 - 39 300° 3 - - 30.07 0 None
2018-05-24 06:00 56 30 - 36 310° 6 - - 30.06 0 None
2018-05-24 05:00 55 30 - 37 290° 7 - - 30.04 0 None
2018-05-24 04:00 57 28 - 32 290° 8 - - 30.04 0 None
2018-05-24 03:00 58 33 - 37 280° 7 - - 30.02 0 None
2018-05-24 02:00 62 30 - 30 290° 7 - - 30.00 0 None
2018-05-24 01:00 62 33 - 33 270° 5 - - 29.98 0 None
2018-05-24 00:00 67 32 - 26 300° 6 - - 29.96 0 None
2018-05-23 23:00 71 34 - 25 320° 9 - - 29.94 0 None
2018-05-23 22:00 73 34 - 24 300° 10 - - 29.92 0 Peak wind: 20 mph (18 kts) from 290° at 04 min
2018-05-23 21:00 74 35 - 24 310° 13 18 - 29.91 0 Peak wind: 19 mph (17 kts) from 310° at 06 min
2018-05-23 20:00 74 33 - 22 300° 14 20 - 29.90 0 Peak wind: 24 mph (21 kts) from 280° at 04 min

Support USWX by starting your Amazon purchase here.